Time;durP1;ratioP1;P1;durP2;ratioP2;P2;SDS_P1;SDS_P2;PMS_P1;PMS_P2;Temp;Humidity;BMP_temperature;BMP_pressure;BME280_temperature;BME280_humidity;BME280_pressure;Samples;Min_cycle;Max_cycle;Signal;HPM_P1;HPM_P2
2023/08/19 00:01:10;;;;;;;10.27;9.03;;;21.80;25.90;;;;;;5027492;28;20739;-64
2023/08/19 00:03:37;;;;;;;10.80;8.43;;;21.80;26.00;;;;;;5026059;28;20904;-64
2023/08/19 00:06:09;;;;;;;11.90;8.87;;;21.80;26.00;;;;;;5024946;28;20830;-64
2023/08/19 00:08:36;;;;;;;9.80;8.33;;;21.70;26.20;;;;;;5021514;28;20483;-64
2023/08/19 00:11:05;;;;;;;12.50;8.60;;;21.70;26.10;;;;;;5026674;28;20466;-64
2023/08/19 00:13:32;;;;;;;11.87;9.37;;;21.70;26.30;;;;;;5019864;28;20467;-64
2023/08/19 00:15:59;;;;;;;11.17;9.00;;;21.70;26.20;;;;;;5026232;28;20455;-64
2023/08/19 00:18:26;;;;;;;11.03;9.30;;;21.60;26.30;;;;;;5018962;28;20501;-64
2023/08/19 00:20:55;;;;;;;10.50;8.47;;;21.60;26.50;;;;;;5025839;28;20467;-64
2023/08/19 00:23:25;;;;;;;15.83;9.50;;;21.50;26.90;;;;;;5022490;28;20497;-64
2023/08/19 00:25:51;;;;;;;13.00;9.67;;;21.40;27.70;;;;;;5024574;28;20560;-64
2023/08/19 00:28:20;;;;;;;13.23;8.67;;;21.30;27.90;;;;;;5025299;28;20494;-64
2023/08/19 00:30:46;;;;;;;11.40;9.23;;;21.30;28.50;;;;;;5026820;28;20471;-63
2023/08/19 00:33:13;;;;;;;11.90;8.90;;;21.20;28.50;;;;;;5024573;28;20475;-64
2023/08/19 00:35:42;;;;;;;11.03;9.30;;;21.20;28.70;;;;;;5022357;28;20474;-64
2023/08/19 00:38:08;;;;;;;12.83;8.50;;;21.20;28.70;;;;;;5024124;28;21004;-64
2023/08/19 00:40:35;;;;;;;11.93;9.23;;;21.20;28.70;;;;;;5024683;28;21104;-64
2023/08/19 00:43:02;;;;;;;13.30;8.77;;;21.10;29.00;;;;;;5026761;28;20463;-64
2023/08/19 00:45:30;;;;;;;12.27;9.23;;;21.10;29.00;;;;;;5023703;28;21011;-64
2023/08/19 00:47:57;;;;;;;10.20;8.63;;;21.10;29.10;;;;;;5025960;28;20513;-64
2023/08/19 00:50:25;;;;;;;12.60;9.47;;;21.00;29.10;;;;;;5028198;28;20472;-64
2023/08/19 00:52:52;;;;;;;10.60;9.30;;;20.90;29.00;;;;;;5026452;28;20481;-64
2023/08/19 00:55:19;;;;;;;11.60;8.47;;;20.90;28.80;;;;;;5022407;28;20462;-64
2023/08/19 00:57:45;;;;;;;13.00;9.10;;;20.90;28.90;;;;;;5022353;28;20482;-64
2023/08/19 01:00:13;;;;;;;16.53;9.30;;;20.80;28.70;;;;;;5027618;28;20463;-64
2023/08/19 01:02:42;;;;;;;11.87;9.67;;;20.80;28.90;;;;;;5022693;28;20471;-64
2023/08/19 01:05:09;;;;;;;13.80;11.03;;;20.80;29.00;;;;;;5024318;28;20471;-64
2023/08/19 01:07:40;;;;;;;12.17;10.60;;;20.80;29.40;;;;;;5026125;28;20482;-64
2023/08/19 01:10:13;;;;;;;13.57;10.53;;;20.80;29.70;;;;;;5025187;28;20586;-64
2023/08/19 01:12:48;;;;;;;12.27;10.33;;;20.70;30.10;;;;;;5019959;28;22643;-64
2023/08/19 01:15:18;;;;;;;13.73;10.80;;;20.70;30.10;;;;;;5024216;28;20501;-64
2023/08/19 01:17:50;;;;;;;12.80;11.10;;;20.80;30.10;;;;;;5023378;28;20482;-64
2023/08/19 01:20:18;;;;;;;12.83;10.37;;;20.70;30.30;;;;;;5022851;28;20473;-64
2023/08/19 01:22:50;;;;;;;13.37;10.80;;;20.70;30.40;;;;;;5024231;28;20470;-64
2023/08/19 01:25:19;;;;;;;15.57;10.50;;;20.60;30.70;;;;;;5018524;28;20491;-64
2023/08/19 01:27:46;;;;;;;12.40;10.83;;;20.60;30.70;;;;;;5025889;28;20483;-64
2023/08/19 01:30:14;;;;;;;12.53;10.20;;;20.60;31.00;;;;;;5024234;28;20462;-64
2023/08/19 01:32:41;;;;;;;12.70;11.40;;;20.60;31.10;;;;;;5022250;28;20486;-64
2023/08/19 01:35:09;;;;;;;11.50;10.03;;;20.60;31.30;;;;;;5022503;28;20462;-64
2023/08/19 01:37:40;;;;;;;12.10;10.43;;;20.60;31.20;;;;;;5029496;23;20479;-64
2023/08/19 01:40:11;;;;;;;11.87;10.57;;;20.60;31.30;;;;;;5045418;28;20470;-65
2023/08/19 01:42:40;;;;;;;15.43;11.70;;;20.60;31.30;;;;;;5043337;28;20527;-64
2023/08/19 01:45:08;;;;;;;14.13;11.57;;;20.50;31.40;;;;;;5043231;28;20494;-63
2023/08/19 01:47:36;;;;;;;18.40;11.80;;;20.60;31.50;;;;;;5041441;28;20486;-63
2023/08/19 01:50:03;;;;;;;13.60;11.33;;;20.50;31.50;;;;;;5045529;28;20848;-63
2023/08/19 01:52:30;;;;;;;15.87;12.23;;;20.60;31.50;;;;;;5043200;28;20473;-63
2023/08/19 01:54:56;;;;;;;13.67;10.90;;;20.50;31.30;;;;;;5043780;28;21121;-63
2023/08/19 01:57:25;;;;;;;13.40;11.13;;;20.50;31.50;;;;;;5043110;28;20462;-63
2023/08/19 01:59:54;;;;;;;14.93;10.47;;;20.50;31.30;;;;;;5045105;28;20457;-63
2023/08/19 02:02:21;;;;;;;13.57;11.60;;;20.50;31.60;;;;;;5034536;28;20487;-64
2023/08/19 02:04:48;;;;;;;14.00;11.13;;;20.50;31.40;;;;;;5042985;28;20469;-63
2023/08/19 02:07:14;;;;;;;12.50;10.47;;;20.50;31.30;;;;;;5041901;28;20485;-64
2023/08/19 02:09:41;;;;;;;14.83;10.77;;;20.40;31.40;;;;;;5043611;28;20466;-63
2023/08/19 02:12:08;;;;;;;13.50;11.30;;;20.50;31.40;;;;;;5038901;28;20472;-64
2023/08/19 02:14:35;;;;;;;14.37;10.60;;;20.40;31.30;;;;;;5045530;28;21001;-63
2023/08/19 02:17:03;;;;;;;12.40;11.10;;;20.40;31.20;;;;;;5044948;28;21136;-63
2023/08/19 02:19:30;;;;;;;15.87;13.90;;;20.50;31.30;;;;;;5041811;28;20489;-63
2023/08/19 02:21:56;;;;;;;15.60;13.30;;;20.40;31.40;;;;;;5043088;28;20477;-63
2023/08/19 02:24:23;;;;;;;13.57;11.90;;;20.40;31.20;;;;;;5045398;28;20979;-64
2023/08/19 02:26:50;;;;;;;16.60;12.63;;;20.40;31.20;;;;;;5042857;28;20462;-63
2023/08/19 02:29:16;;;;;;;14.43;12.80;;;20.30;31.30;;;;;;5043656;28;20489;-63
2023/08/19 02:31:44;;;;;;;15.80;12.07;;;20.30;31.20;;;;;;5041506;28;20477;-63
2023/08/19 02:34:12;;;;;;;13.03;11.13;;;20.40;31.20;;;;;;5045953;28;20477;-63
2023/08/19 02:36:38;;;;;;;13.90;11.30;;;20.30;31.30;;;;;;5044420;28;20462;-64
2023/08/19 02:39:05;;;;;;;12.50;10.90;;;20.30;31.10;;;;;;5043096;28;20486;-63
2023/08/19 02:41:32;;;;;;;12.67;10.13;;;20.30;31.00;;;;;;5042801;28;20513;-63
2023/08/19 02:43:59;;;;;;;12.43;9.97;;;20.30;30.90;;;;;;5046104;28;20465;-63
2023/08/19 02:46:25;;;;;;;12.53;10.77;;;20.20;30.80;;;;;;5048310;28;21023;-63
2023/08/19 02:48:52;;;;;;;11.83;10.20;;;20.20;30.90;;;;;;5046611;28;20565;-63
2023/08/19 02:51:20;;;;;;;11.93;10.60;;;20.20;30.80;;;;;;5046590;28;20469;-63
2023/08/19 02:53:47;;;;;;;12.43;11.00;;;20.20;30.90;;;;;;5047684;28;21012;-63
2023/08/19 02:56:13;;;;;;;14.43;11.13;;;20.20;30.90;;;;;;5047718;28;20466;-63
2023/08/19 02:58:40;;;;;;;15.03;11.03;;;20.20;31.00;;;;;;5045820;28;20560;-63
2023/08/19 03:01:07;;;;;;;12.63;10.00;;;20.20;31.10;;;;;;5044622;28;20485;-63
2023/08/19 03:03:34;;;;;;;12.60;10.77;;;20.10;31.30;;;;;;5046114;28;20458;-63
2023/08/19 03:06:03;;;;;;;14.73;11.67;;;20.10;31.30;;;;;;5047366;28;20462;-64
2023/08/19 03:08:31;;;;;;;15.63;11.60;;;20.10;31.20;;;;;;5046465;28;20481;-64
2023/08/19 03:10:58;;;;;;;14.80;12.40;;;20.00;31.20;;;;;;5042761;28;20547;-64
2023/08/19 03:13:24;;;;;;;14.20;11.20;;;20.10;31.60;;;;;;5048121;28;20462;-64
2023/08/19 03:15:52;;;;;;;13.93;11.10;;;20.00;31.40;;;;;;5047360;28;20457;-64
2023/08/19 03:18:20;;;;;;;13.53;10.20;;;20.00;31.50;;;;;;5042741;28;20489;-63
2023/08/19 03:20:55;;;;;;;15.00;11.07;;;19.90;31.30;;;;;;5046896;28;20489;-63
2023/08/19 03:23:22;;;;;;;13.10;11.20;;;19.80;31.90;;;;;;5047189;28;20465;-63
2023/08/19 03:25:51;;;;;;;15.00;11.30;;;19.80;31.70;;;;;;5043825;28;20466;-63
2023/08/19 03:28:17;;;;;;;12.90;11.40;;;19.80;31.90;;;;;;5045392;28;20482;-63
2023/08/19 03:30:44;;;;;;;14.80;12.00;;;19.80;32.80;;;;;;5046436;28;20466;-63
2023/08/19 03:33:11;;;;;;;15.77;11.47;;;19.80;32.50;;;;;;5047035;28;20879;-64
2023/08/19 03:35:37;;;;;;;17.23;13.43;;;19.80;32.60;;;;;;5044706;28;20466;-64
2023/08/19 03:38:04;;;;;;;14.87;13.27;;;19.70;32.70;;;;;;5045830;28;20482;-64
2023/08/19 03:40:31;;;;;;;15.00;12.40;;;19.70;32.70;;;;;;5045322;28;20482;-63
2023/08/19 03:42:59;;;;;;;15.50;13.10;;;19.70;32.80;;;;;;5045239;28;20470;-64
2023/08/19 03:45:26;;;;;;;16.27;13.70;;;19.70;32.80;;;;;;5046516;28;20469;-63
2023/08/19 03:47:52;;;;;;;14.10;12.00;;;19.60;33.10;;;;;;5043233;28;20865;-63
2023/08/19 03:50:19;;;;;;;14.07;12.07;;;19.60;32.90;;;;;;5046483;28;20457;-63
2023/08/19 03:52:46;;;;;;;14.70;12.53;;;19.60;33.00;;;;;;5037111;28;20475;-63
2023/08/19 03:55:12;;;;;;;16.60;13.50;;;19.60;33.00;;;;;;5038278;28;20467;-63
2023/08/19 03:57:39;;;;;;;16.00;13.20;;;19.60;33.20;;;;;;5043005;28;20485;-64
2023/08/19 04:00:09;;;;;;;14.83;12.77;;;19.60;33.30;;;;;;5046041;28;20457;-63
2023/08/19 04:02:35;;;;;;;16.20;13.10;;;19.60;33.30;;;;;;5043225;28;21038;-63
2023/08/19 04:05:04;;;;;;;17.10;12.90;;;19.60;33.50;;;;;;5040005;28;20466;-63
2023/08/19 04:07:31;;;;;;;13.27;11.77;;;19.60;33.30;;;;;;5043787;28;20559;-64
2023/08/19 04:09:58;;;;;;;16.77;13.50;;;19.60;33.00;;;;;;5043978;28;20470;-63
2023/08/19 04:12:25;;;;;;;16.60;12.47;;;19.60;32.80;;;;;;5039390;28;20477;-63
2023/08/19 04:14:53;;;;;;;15.93;12.53;;;19.60;32.80;;;;;;5047911;28;20469;-63
2023/08/19 04:17:21;;;;;;;15.00;12.57;;;19.50;32.80;;;;;;5044520;28;20466;-63
2023/08/19 04:19:48;;;;;;;15.20;13.20;;;19.50;32.90;;;;;;5044024;28;20462;-64
2023/08/19 04:22:16;;;;;;;18.67;14.60;;;19.50;33.00;;;;;;5044509;28;20462;-63
2023/08/19 04:24:43;;;;;;;15.83;12.40;;;19.50;33.20;;;;;;5043295;28;21060;-63
2023/08/19 04:27:10;;;;;;;16.23;12.80;;;19.50;33.10;;;;;;5042875;28;20942;-63
2023/08/19 04:29:36;;;;;;;14.60;13.07;;;19.60;32.90;;;;;;5046636;28;20474;-63
2023/08/19 04:32:04;;;;;;;13.30;11.90;;;19.60;32.60;;;;;;5043228;28;20482;-63
2023/08/19 04:34:32;;;;;;;13.50;11.73;;;19.70;32.50;;;;;;5044826;28;20954;-63
2023/08/19 04:36:59;;;;;;;17.00;11.97;;;19.70;32.50;;;;;;5043331;28;21002;-63
2023/08/19 04:39:26;;;;;;;17.47;13.80;;;19.70;32.40;;;;;;5045206;28;20496;-63
2023/08/19 04:41:53;;;;;;;15.30;13.17;;;19.70;32.20;;;;;;5043941;28;21203;-63
2023/08/19 04:44:20;;;;;;;13.03;11.27;;;19.70;32.20;;;;;;5046060;28;20497;-63
2023/08/19 04:46:46;;;;;;;15.97;12.57;;;19.80;31.90;;;;;;5045646;28;20462;-63
2023/08/19 04:49:14;;;;;;;14.23;12.70;;;19.80;31.80;;;;;;5044456;28;20981;-64
2023/08/19 04:51:42;;;;;;;19.53;14.40;;;19.90;31.90;;;;;;5046222;28;20549;-64
2023/08/19 04:54:09;;;;;;;15.90;13.27;;;19.90;31.70;;;;;;5043692;28;20465;-63
2023/08/19 04:56:36;;;;;;;14.77;13.17;;;19.90;31.70;;;;;;5044875;28;20560;-64
2023/08/19 04:59:02;;;;;;;17.73;13.20;;;20.00;31.70;;;;;;5041827;28;20490;-64
2023/08/19 05:01:29;;;;;;;16.30;13.33;;;20.00;31.70;;;;;;5045811;28;20481;-64
2023/08/19 05:03:56;;;;;;;14.70;12.10;;;20.10;31.70;;;;;;5046163;28;20472;-64
2023/08/19 05:06:24;;;;;;;13.23;10.93;;;20.10;31.70;;;;;;5045151;28;20465;-63
2023/08/19 05:08:52;;;;;;;14.43;12.43;;;20.20;31.50;;;;;;5041816;28;20487;-63
2023/08/19 05:11:18;;;;;;;12.93;11.60;;;20.30;31.30;;;;;;5044283;28;20466;-63
2023/08/19 05:13:46;;;;;;;15.40;12.60;;;20.50;31.10;;;;;;5043397;28;21009;-63
2023/08/19 05:16:12;;;;;;;12.30;10.93;;;20.70;30.70;;;;;;5043692;28;20462;-65
2023/08/19 05:18:39;;;;;;;13.10;11.67;;;21.00;30.20;;;;;;5045594;28;20478;-65
2023/08/19 05:21:06;;;;;;;13.80;10.90;;;21.40;29.20;;;;;;5044399;28;20477;-64
2023/08/19 05:23:32;;;;;;;13.70;10.77;;;21.70;28.60;;;;;;5046410;28;20466;-65
2023/08/19 05:26:00;;;;;;;13.30;11.03;;;22.00;27.60;;;;;;5046069;28;20485;-65
2023/08/19 05:28:27;;;;;;;12.30;10.50;;;22.40;26.50;;;;;;5044953;28;20490;-65
2023/08/19 05:30:54;;;;;;;12.60;9.13;;;22.90;25.10;;;;;;5043689;28;20470;-65
2023/08/19 05:33:21;;;;;;;10.97;9.67;;;23.70;22.70;;;;;;5034819;28;20467;-64
2023/08/19 05:35:47;;;;;;;11.80;10.57;;;24.60;20.00;;;;;;5041396;28;20473;-63
2023/08/19 05:38:14;;;;;;;12.07;9.60;;;25.60;17.20;;;;;;5044083;28;20482;-63
2023/08/19 05:40:41;;;;;;;10.80;9.70;;;26.60;14.90;;;;;;5043856;28;20485;-63
2023/08/19 05:43:09;;;;;;;13.20;8.70;;;27.70;12.50;;;;;;5044693;28;20469;-63
2023/08/19 05:45:35;;;;;;;12.00;9.20;;;28.70;9.90;;;;;;5046030;28;20462;-63
2023/08/19 05:48:03;;;;;;;9.70;8.67;;;29.90;7.40;;;;;;5044480;28;20510;-64
2023/08/19 05:50:30;;;;;;;9.40;8.27;;;30.90;4.80;;;;;;5044993;28;20468;-63
2023/08/19 05:52:57;;;;;;;10.03;9.03;;;31.90;2.50;;;;;;5056450;28;20519;-64
2023/08/19 05:55:23;;;;;;;14.50;8.70;;;32.90;1.00;;;;;;5043141;28;20473;-64
2023/08/19 05:57:50;;;;;;;9.50;8.50;;;33.90;1.00;;;;;;5041335;23;20676;-69
2023/08/19 06:00:18;;;;;;;9.40;8.20;;;34.70;1.00;;;;;;5023522;28;20463;-69
2023/08/19 06:02:45;;;;;;;11.27;7.23;;;35.70;1.00;;;;;;5024497;28;20474;-69
2023/08/19 06:05:12;;;;;;;8.73;7.53;;;36.70;1.00;;;;;;5019370;28;20643;-69
2023/08/19 06:07:38;;;;;;;9.27;7.77;;;37.70;1.00;;;;;;5023950;28;20489;-69
2023/08/19 06:10:06;;;;;;;12.30;8.00;;;38.60;1.00;;;;;;5017520;28;20479;-70
2023/08/19 06:12:33;;;;;;;8.47;7.60;;;39.50;1.00;;;;;;5022241;28;20486;-71
2023/08/19 06:14:59;;;;;;;8.83;7.87;;;40.30;1.00;;;;;;5021720;28;20975;-71
2023/08/19 06:17:27;;;;;;;10.23;6.47;;;41.00;1.00;;;;;;5025368;28;20497;-70
2023/08/19 06:19:54;;;;;;;9.17;7.70;;;41.60;1.00;;;;;;5028292;28;20459;-70
2023/08/19 06:22:21;;;;;;;9.50;6.70;;;42.20;1.00;;;;;;5027194;28;20881;-70
2023/08/19 06:24:47;;;;;;;10.10;6.50;;;42.70;1.00;;;;;;5022973;28;20471;-71
2023/08/19 06:27:14;;;;;;;10.23;6.60;;;43.20;1.00;;;;;;5025667;28;20990;-71
2023/08/19 06:29:41;;;;;;;8.03;5.40;;;43.80;1.00;;;;;;5028241;28;20505;-71
2023/08/19 06:32:08;;;;;;;6.60;4.93;;;44.30;1.00;;;;;;5025339;28;20486;-71
2023/08/19 06:34:37;;;;;;;7.67;4.20;;;44.80;1.00;;;;;;5025205;28;20459;-71
2023/08/19 06:37:05;;;;;;;7.10;4.50;;;45.30;1.00;;;;;;5025590;28;20467;-71
2023/08/19 06:39:34;;;;;;;7.87;3.80;;;45.70;1.00;;;;;;5027990;28;20936;-71
2023/08/19 06:42:03;;;;;;;7.33;4.90;;;46.00;1.00;;;;;;5024285;28;20459;-70
2023/08/19 06:44:31;;;;;;;7.00;4.37;;;46.30;1.00;;;;;;5028698;28;20469;-71
2023/08/19 06:46:58;;;;;;;7.73;4.60;;;46.70;1.00;;;;;;5025526;28;20459;-72
2023/08/19 06:49:25;;;;;;;7.30;4.33;;;47.10;1.00;;;;;;5026703;28;21034;-71
2023/08/19 06:51:54;;;;;;;8.53;4.83;;;47.50;1.00;;;;;;5028699;28;20471;-71
2023/08/19 06:54:22;;;;;;;8.13;4.07;;;47.90;1.00;;;;;;5020466;28;20466;-71
2023/08/19 06:56:52;;;;;;;5.30;4.20;;;48.30;1.00;;;;;;5023592;28;20546;-72
2023/08/19 06:59:24;;;;;;;7.97;4.43;;;48.80;1.00;;;;;;5021049;28;20506;-72
2023/08/19 07:01:53;;;;;;;7.63;4.40;;;48.70;1.00;;;;;;5026698;28;20478;-72
2023/08/19 07:04:22;;;;;;;9.93;4.57;;;48.70;1.00;;;;;;5024946;28;20489;-73
2023/08/19 07:06:50;;;;;;;5.63;4.13;;;49.00;1.00;;;;;;5026772;28;20481;-72
2023/08/19 07:09:22;;;;;;;6.57;4.20;;;48.90;1.00;;;;;;5029551;28;20479;-72
2023/08/19 07:11:51;;;;;;;6.77;3.93;;;48.90;1.00;;;;;;5027581;28;20470;-72
2023/08/19 07:14:18;;;;;;;7.60;4.13;;;49.30;1.00;;;;;;5024412;28;20467;-71
2023/08/19 07:16:46;;;;;;;11.73;4.43;;;49.70;1.00;;;;;;5029273;28;20470;-72
2023/08/19 07:19:15;;;;;;;7.33;3.80;;;49.90;1.00;;;;;;5028194;28;20493;-71
2023/08/19 07:21:46;;;;;;;6.50;4.40;;;50.30;1.00;;;;;;5029777;28;20459;-71
2023/08/19 07:24:14;;;;;;;7.10;4.33;;;50.80;1.00;;;;;;5025593;28;20872;-71
2023/08/19 07:26:43;;;;;;;8.23;4.23;;;51.30;1.00;;;;;;5027861;28;20465;-71
2023/08/19 07:29:10;;;;;;;5.57;3.50;;;51.70;1.00;;;;;;5024430;28;20482;-71
2023/08/19 07:31:37;;;;;;;9.50;4.00;;;52.30;1.00;;;;;;5016009;28;20471;-72
2023/08/19 07:34:04;;;;;;;6.30;4.47;;;52.60;1.00;;;;;;5014009;28;20467;-73
2023/08/19 07:36:31;;;;;;;8.47;4.10;;;53.00;1.00;;;;;;5024049;28;20470;-72
2023/08/19 07:38:57;;;;;;;6.63;4.03;;;53.30;1.00;;;;;;5022770;28;20482;-71
2023/08/19 07:41:24;;;;;;;7.53;4.10;;;53.70;1.00;;;;;;5022606;28;20480;-72
2023/08/19 07:43:52;;;;;;;6.40;4.10;;;54.00;1.00;;;;;;5024908;28;20467;-72
2023/08/19 07:46:19;;;;;;;9.00;4.47;;;54.00;1.00;;;;;;5022307;28;20465;-72
2023/08/19 07:48:46;;;;;;;5.97;4.37;;;54.20;1.00;;;;;;5018018;28;20556;-72
2023/08/19 07:51:13;;;;;;;6.20;3.30;;;54.20;1.00;;;;;;5021537;28;20462;-71
2023/08/19 07:53:40;;;;;;;9.60;4.10;;;54.60;1.00;;;;;;5024271;28;20810;-71
2023/08/19 07:56:07;;;;;;;7.27;4.60;;;55.10;1.00;;;;;;5023682;28;20303;-72
2023/08/19 07:58:34;;;;;;;5.97;3.40;;;55.60;1.00;;;;;;5022210;28;20494;-72
2023/08/19 08:01:02;;;;;;;7.17;3.90;;;55.50;1.00;;;;;;5021237;28;20231;-71
2023/08/19 08:03:29;;;;;;;6.85;3.85;;;55.90;1.00;;;;;;5022558;28;20211;-72
2023/08/19 08:05:56;;;;;;;6.32;3.40;;;55.90;1.00;;;;;;5017658;28;20219;-71
2023/08/19 08:08:23;;;;;;;10.18;4.28;;;56.10;1.00;;;;;;5021519;28;20787;-72
2023/08/19 08:10:52;;;;;;;6.75;3.83;;;56.20;1.00;;;;;;5023713;28;20234;-73
2023/08/19 08:13:19;;;;;;;7.88;3.90;;;56.30;1.00;;;;;;5024550;28;20208;-73
2023/08/19 08:15:46;;;;;;;8.38;3.40;;;56.70;1.00;;;;;;5019556;28;20203;-68
2023/08/19 08:18:15;;;;;;;6.30;3.55;;;57.00;1.00;;;;;;5026309;28;20405;-69
2023/08/19 08:20:41;;;;;;;5.45;3.47;;;57.50;1.00;;;;;;5024317;28;20196;-69
2023/08/19 08:23:08;;;;;;;6.75;3.50;;;57.70;1.00;;;;;;5026075;28;20208;-69
2023/08/19 08:25:35;;;;;;;4.72;2.92;;;58.10;1.00;;;;;;5025046;28;20196;-70
2023/08/19 08:28:02;;;;;;;8.73;3.22;;;58.50;1.00;;;;;;5019041;28;20227;-70
2023/08/19 08:30:29;;;;;;;6.82;3.45;;;58.80;1.00;;;;;;5022619;28;20227;-69
2023/08/19 08:32:55;;;;;;;6.95;3.28;;;58.80;1.00;;;;;;5022717;28;20845;-68
2023/08/19 08:35:23;;;;;;;6.15;3.58;;;59.00;1.00;;;;;;5023470;28;20204;-70
2023/08/19 08:37:50;;;;;;;6.13;3.20;;;59.30;1.00;;;;;;5021524;28;20239;-70
2023/08/19 08:40:17;;;;;;;4.93;3.05;;;59.40;1.00;;;;;;5017376;28;20199;-70
2023/08/19 08:42:45;;;;;;;9.40;3.47;;;59.40;1.00;;;;;;5021952;28;20204;-70
2023/08/19 08:45:13;;;;;;;6.25;3.45;;;59.50;1.00;;;;;;5021814;28;20196;-70
2023/08/19 08:47:41;;;;;;;5.95;3.33;;;59.70;1.00;;;;;;5017540;28;20220;-68
2023/08/19 08:50:10;;;;;;;4.88;3.13;;;60.00;1.00;;;;;;5026849;28;20250;-70
2023/08/19 08:52:39;;;;;;;4.68;3.30;;;60.10;1.00;;;;;;5018024;28;20212;-71
2023/08/19 08:55:07;;;;;;;5.03;3.35;;;60.10;1.00;;;;;;5017342;28;20234;-70
2023/08/19 08:57:34;;;;;;;7.00;3.10;;;60.00;1.00;;;;;;5022954;28;20220;-70
2023/08/19 09:00:01;;;;;;;6.35;2.95;;;60.00;1.00;;;;;;5025608;28;20207;-71
2023/08/19 09:02:30;;;;;;;5.78;3.20;;;60.00;1.00;;;;;;5020148;28;20235;-71
2023/08/19 09:04:57;;;;;;;7.60;3.30;;;60.00;1.00;;;;;;5023162;28;20207;-70
2023/08/19 09:07:26;;;;;;;6.95;3.72;;;59.80;1.00;;;;;;5026906;28;20214;-70
2023/08/19 09:09:56;;;;;;;4.85;2.90;;;59.80;1.00;;;;;;5023722;28;20719;-71
2023/08/19 09:12:24;;;;;;;7.03;3.20;;;59.80;1.00;;;;;;5024075;28;20211;-70
2023/08/19 09:14:54;;;;;;;9.13;3.67;;;60.00;1.00;;;;;;5022624;28;20833;-70
2023/08/19 09:17:21;;;;;;;8.07;3.53;;;60.20;1.00;;;;;;5024437;28;20202;-70
2023/08/19 09:19:48;;;;;;;6.20;2.88;;;60.30;1.00;;;;;;5024682;28;20206;-70
2023/08/19 09:22:21;;;;;;;5.18;3.00;;;60.10;1.00;;;;;;5027589;28;20223;-70
2023/08/19 09:24:48;;;;;;;4.57;2.63;;;60.40;1.00;;;;;;5026988;28;20203;-70
2023/08/19 09:27:26;;;;;;;5.22;2.65;;;60.30;1.00;;;;;;5023923;28;20207;-70
2023/08/19 09:29:53;;;;;;;6.50;3.53;;;60.50;1.00;;;;;;5027329;28;20285;-70
2023/08/19 09:32:27;;;;;;;7.80;3.33;;;60.70;1.00;;;;;;5021245;28;20219;-70
2023/08/19 09:35:02;;;;;;;5.03;3.65;;;60.80;1.00;;;;;;5022220;28;20211;-70
2023/08/19 09:37:29;;;;;;;6.63;3.40;;;61.00;1.00;;;;;;5022062;28;20699;-71
2023/08/19 09:39:56;;;;;;;8.95;3.42;;;60.60;1.00;;;;;;5026431;28;20206;-70
2023/08/19 09:42:24;;;;;;;6.53;3.22;;;59.30;1.00;;;;;;5023256;28;20211;-70
2023/08/19 09:44:51;;;;;;;6.25;3.72;;;58.10;1.00;;;;;;5024599;28;20745;-70
2023/08/19 09:47:18;;;;;;;7.78;3.00;;;58.30;1.00;;;;;;5019486;28;20202;-71
2023/08/19 09:49:45;;;;;;;5.93;3.25;;;58.60;1.00;;;;;;5024384;28;20346;-70
2023/08/19 09:52:17;;;;;;;4.95;3.60;;;58.80;1.00;;;;;;5029207;28;20208;-70
2023/08/19 09:54:51;;;;;;;5.82;3.60;;;58.90;1.00;;;;;;5025062;28;20227;-70
2023/08/19 09:57:17;;;;;;;5.53;3.33;;;58.90;1.00;;;;;;5021984;28;20227;-70
2023/08/19 09:59:46;;;;;;;7.50;3.53;;;58.80;1.00;;;;;;5021503;28;20270;-70
2023/08/19 10:02:14;;;;;;;6.78;3.67;;;59.00;1.00;;;;;;5024658;28;20282;-70
2023/08/19 10:04:41;;;;;;;6.35;3.38;;;58.70;1.00;;;;;;5021830;28;20210;-71
2023/08/19 10:07:15;;;;;;;7.72;4.00;;;58.70;1.00;;;;;;5025134;28;20614;-71
2023/08/19 10:09:42;;;;;;;5.60;3.35;;;58.10;1.00;;;;;;5024988;28;20221;-70
2023/08/19 10:12:11;;;;;;;7.60;3.97;;;57.70;1.00;;;;;;5021165;28;20207;-70
2023/08/19 10:14:41;;;;;;;9.93;4.18;;;57.50;1.00;;;;;;5024134;28;20214;-70
2023/08/19 10:17:11;;;;;;;6.13;3.08;;;57.10;1.00;;;;;;5024493;28;20195;-70
2023/08/19 10:19:44;;;;;;;5.95;3.28;;;56.90;1.00;;;;;;5022055;28;20193;-71
2023/08/19 10:22:13;;;;;;;5.88;3.30;;;57.00;1.00;;;;;;5020367;28;20206;-70
2023/08/19 10:24:40;;;;;;;7.15;4.03;;;57.10;1.00;;;;;;5021124;28;20612;-70
2023/08/19 10:27:16;;;;;;;5.30;3.65;;;56.90;1.00;;;;;;5027574;28;20211;-70
2023/08/19 10:29:43;;;;;;;5.82;3.47;;;56.70;1.00;;;;;;5021413;28;20219;-70
2023/08/19 10:32:28;;;;;;;6.50;3.70;;;56.80;1.00;;;;;;5023198;28;20231;-70
2023/08/19 10:35:04;;;;;;;5.93;3.80;;;56.60;1.00;;;;;;5022527;28;20668;-70
2023/08/19 10:37:32;;;;;;;6.53;3.97;;;56.10;1.00;;;;;;5022644;28;20224;-70
2023/08/19 10:40:11;;;;;;;7.40;4.50;;;55.00;1.00;;;;;;5020308;28;20199;-70
2023/08/19 10:42:38;;;;;;;7.30;3.33;;;53.50;1.00;;;;;;5021790;28;20222;-70
2023/08/19 10:45:13;;;;;;;6.03;3.67;;;52.00;1.00;;;;;;5022398;28;20977;-70
2023/08/19 10:47:42;;;;;;;7.63;3.70;;;50.50;1.00;;;;;;5018471;28;21005;-70
2023/08/19 10:50:10;;;;;;;6.40;3.93;;;48.70;1.00;;;;;;5024329;28;20485;-70
2023/08/19 10:52:56;;;;;;;7.90;3.87;;;46.90;1.00;;;;;;5022949;28;20567;-70
2023/08/19 10:55:23;;;;;;;8.63;4.43;;;45.50;1.00;;;;;;5022825;28;20471;-70
2023/08/19 10:57:50;;;;;;;6.43;4.07;;;44.40;1.00;;;;;;5019751;28;20509;-70
2023/08/19 11:00:22;;;;;;;8.00;4.27;;;43.20;1.00;;;;;;5022762;28;20562;-70
2023/08/19 11:02:51;;;;;;;8.07;4.27;;;42.10;1.00;;;;;;5025221;28;20470;-70
2023/08/19 11:05:25;;;;;;;9.20;4.20;;;41.30;1.00;;;;;;5025805;28;20471;-70
2023/08/19 11:07:52;;;;;;;9.10;4.70;;;40.50;1.00;;;;;;5024420;28;20537;-70
2023/08/19 11:10:19;;;;;;;5.77;4.10;;;39.70;1.00;;;;;;5028339;28;20576;-66
2023/08/19 11:12:46;;;;;;;7.77;4.97;;;39.00;1.00;;;;;;5021795;28;20463;-66
2023/08/19 11:15:13;;;;;;;13.47;4.90;;;38.30;1.00;;;;;;5023476;28;20490;-67
2023/08/19 11:17:40;;;;;;;6.80;4.30;;;37.70;1.00;;;;;;5023276;28;20864;-67
2023/08/19 11:20:10;;;;;;;10.30;4.80;;;37.20;1.00;;;;;;5023320;28;20460;-67
2023/08/19 11:22:42;;;;;;;7.97;4.57;;;36.80;1.00;;;;;;5021554;28;20494;-67
2023/08/19 11:25:09;;;;;;;7.30;4.23;;;36.40;1.00;;;;;;5024563;28;20877;-66
2023/08/19 11:27:37;;;;;;;13.70;5.20;;;36.10;1.00;;;;;;5022641;28;20478;-66
2023/08/19 11:30:04;;;;;;;9.43;4.70;;;35.80;1.00;;;;;;5025211;28;20487;-67
2023/08/19 11:32:31;;;;;;;7.13;4.23;;;35.50;1.00;;;;;;5020649;28;20487;-68
2023/08/19 11:34:58;;;;;;;7.57;5.00;;;35.20;1.00;;;;;;5025990;28;20466;-67
2023/08/19 11:37:28;;;;;;;7.97;4.67;;;34.80;1.00;;;;;;5024615;28;20474;-67
2023/08/19 11:39:55;;;;;;;6.90;4.97;;;34.60;1.00;;;;;;5021165;28;20463;-68
2023/08/19 11:42:22;;;;;;;9.90;4.77;;;34.50;1.00;;;;;;5023768;28;20463;-69
2023/08/19 11:44:49;;;;;;;7.80;5.00;;;34.30;1.00;;;;;;5024850;28;20467;-68
2023/08/19 11:47:16;;;;;;;7.40;4.70;;;34.20;1.00;;;;;;5021929;28;20951;-68
2023/08/19 11:49:44;;;;;;;7.80;4.53;;;34.10;1.00;;;;;;5021580;28;20459;-68
2023/08/19 11:52:10;;;;;;;10.73;5.50;;;33.90;1.00;;;;;;5020620;28;20514;-71
2023/08/19 11:54:38;;;;;;;8.33;5.20;;;33.80;1.00;;;;;;5017774;28;20474;-68
2023/08/19 11:57:06;;;;;;;7.20;5.17;;;33.60;1.00;;;;;;5016162;28;20736;-68
2023/08/19 11:59:34;;;;;;;9.33;4.87;;;33.50;1.00;;;;;;5021971;28;20513;-68
2023/08/19 12:02:05;;;;;;;6.10;4.50;;;33.40;1.00;;;;;;5025494;28;20471;-68
2023/08/19 12:04:33;;;;;;;7.67;4.63;;;33.30;1.00;;;;;;5022525;28;20464;-69
2023/08/19 12:07:04;;;;;;;9.50;5.50;;;33.30;1.00;;;;;;5023065;28;20526;-68
2023/08/19 12:09:36;;;;;;;8.23;4.70;;;33.20;1.00;;;;;;5023960;28;20483;-69
2023/08/19 12:12:09;;;;;;;10.67;5.57;;;33.20;1.00;;;;;;5022213;28;20566;-68
2023/08/19 12:14:37;;;;;;;7.13;4.87;;;33.20;1.00;;;;;;5021143;28;20605;-69
2023/08/19 12:17:04;;;;;;;8.30;5.07;;;33.10;1.00;;;;;;5025104;28;20461;-69
2023/08/19 12:19:31;;;;;;;10.93;5.50;;;33.00;1.00;;;;;;5022976;28;20483;-69
2023/08/19 12:22:00;;;;;;;10.93;4.83;;;33.00;1.00;;;;;;5024872;28;20477;-68
2023/08/19 12:24:27;;;;;;;9.53;4.97;;;32.90;1.00;;;;;;5024024;28;20467;-69
2023/08/19 12:26:53;;;;;;;9.80;5.70;;;32.80;1.00;;;;;;5023260;28;21159;-69
2023/08/19 12:29:22;;;;;;;7.60;4.87;;;32.80;1.00;;;;;;5023320;28;20562;-69
2023/08/19 12:31:49;;;;;;;10.70;4.93;;;32.70;1.00;;;;;;5023825;28;20484;-69
2023/08/19 12:34:16;;;;;;;8.27;4.60;;;32.60;1.00;;;;;;5023609;28;20950;-68
2023/08/19 12:36:42;;;;;;;9.30;4.70;;;32.60;1.00;;;;;;5023214;28;20475;-69
2023/08/19 12:39:09;;;;;;;7.83;4.30;;;32.50;1.00;;;;;;5026271;28;20494;-69
2023/08/19 12:41:37;;;;;;;7.50;4.57;;;32.50;1.00;;;;;;5023557;28;20470;-69
2023/08/19 12:44:04;;;;;;;8.93;5.10;;;32.50;1.00;;;;;;5024379;28;20475;-68
2023/08/19 12:46:41;;;;;;;6.33;4.13;;;32.50;1.00;;;;;;5024908;28;20471;-68